Apellis — 3FJT2 — position and weather

sailwx.info

Track history (hours):
 
Tides and Currents Weather Stations Pressure Air Temp Water Temp Dewpoint Dewpoint Depression Visibility Wind Speed Wind Dir Waves Ship Positions

Apellis

Last reported at 2014-Jul-29 14:33 UTC. Time now 2014-Jul-29 14:53 UTC.
Position N 51°33' E 002°17'.

Length 178 m; draft 9.8 m.

Type: Cargo ship. MMSI: 353847000.

Date/timePositionNaut miles runAvg speedWind from/ knotsBaromVisibWave heightAir tempDewpointWater temp
2014-Jul-29 14:33N 51°33' E 002°17'1313.0
2014-Jul-29 13:32N 51°22' E 002°07'1212.1
2014-Jul-29 12:32N 51°12' E 001°57'1412.6
2014-Jul-29 11:24N 51°03' E 001°39'1011.6
2014-Jul-29 10:33N 50°55' E 001°29'4110.1
2014-Jul-29 06:32N 50°26' E 000°44'1310.9
2014-Jul-29 05:20N 50°23' E 000°24'8411.9
2014-Jul-28 22:15N 50°01' W 001°43'  
2014-Jul-24 14:33N 32°47' W 017°33'1312.5
2014-Jul-24 13:31N 32°35' W 017°40'  
Track history (hours):
 
Tides and Currents Weather Stations Pressure Air Temp Water Temp Dewpoint Dewpoint Depression Visibility Wind Speed Wind Dir Waves Ship Positions

Apellis

Last reported at 2014-Jul-29 14:33 UTC. Time now 2014-Jul-29 14:53 UTC.
Position N 51°33' E 002°17'.

Length 178 m; draft 9.8 m.

Type: Cargo ship. MMSI: 353847000.

Date/timePositionNaut miles runAvg speedWind from/ knotsBaromVisibWave heightAir tempDewpointWater temp
2014-Jul-29 14:33N 51°33' E 002°17'1313.0
2014-Jul-29 13:32N 51°22' E 002°07'1212.1
2014-Jul-29 12:32N 51°12' E 001°57'1412.6
2014-Jul-29 11:24N 51°03' E 001°39'1011.6
2014-Jul-29 10:33N 50°55' E 001°29'4110.1
2014-Jul-29 06:32N 50°26' E 000°44'1310.9
2014-Jul-29 05:20N 50°23' E 000°24'8411.9
2014-Jul-28 22:15N 50°01' W 001°43'  
2014-Jul-24 14:33N 32°47' W 017°33'1312.5
2014-Jul-24 13:31N 32°35' W 017°40'  

Dump ship's entire track history